createdAt,value
2022-09-18T00:01:45.501Z,51.28
2022-09-18T00:04:15.482Z,59.75
2022-09-18T00:06:46.628Z,52.40
2022-09-18T00:09:16.948Z,54.20
2022-09-18T00:11:51.257Z,48.60
2022-09-18T00:14:23.130Z,53.60
2022-09-18T00:16:52.574Z,56.90
2022-09-18T00:19:22.392Z,62.92
2022-09-18T00:21:52.910Z,69.18
2022-09-18T00:24:24.384Z,44.70
2022-09-18T00:26:54.971Z,43.08
2022-09-18T00:29:24.323Z,55.03
2022-09-18T00:31:53.574Z,64.00
2022-09-18T00:34:22.838Z,63.72
2022-09-18T00:36:53.402Z,57.20
2022-09-18T00:39:23.518Z,59.47
2022-09-18T00:41:54.174Z,59.17
2022-09-18T00:44:38.852Z,70.72
2022-09-18T00:47:23.969Z,57.75
2022-09-18T00:50:00.720Z,59.10
2022-09-18T00:52:46.106Z,64.45
2022-09-18T00:55:16.472Z,57.97
2022-09-18T00:57:52.538Z,62.72
2022-09-18T01:00:22.526Z,49.58
2022-09-18T01:02:51.913Z,56.17
2022-09-18T01:05:31.986Z,57.80
2022-09-18T01:08:17.054Z,51.17
2022-09-18T01:11:03.857Z,60.70
2022-09-18T01:13:44.666Z,58.15
2022-09-18T01:16:23.834Z,52.85
2022-09-18T01:19:03.573Z,64.45
2022-09-18T01:21:39.028Z,63.58
2022-09-18T01:24:46.313Z,69.88
2022-09-18T01:27:28.441Z,67.30
2022-09-18T01:30:06.153Z,59.90
2022-09-18T01:32:42.650Z,69.43
2022-09-18T01:38:17.229Z,60.47
2022-09-18T01:40:50.684Z,56.88
2022-09-18T01:43:22.639Z,62.88
2022-09-18T01:45:58.589Z,59.22
2022-09-18T01:48:40.075Z,51.63
2022-09-18T01:51:21.489Z,59.42
2022-09-18T01:56:29.230Z,41.38
2022-09-18T01:59:04.884Z,43.00
2022-09-18T02:01:45.626Z,52.40
2022-09-18T02:04:23.215Z,46.20
2022-09-18T02:07:00.714Z,60.10
2022-09-18T02:09:31.245Z,66.00
2022-09-18T02:12:04.937Z,56.58
2022-09-18T02:14:40.209Z,66.45
2022-09-18T02:17:35.596Z,56.20
2022-09-18T02:20:13.898Z,44.25
2022-09-18T02:22:45.857Z,55.75
2022-09-18T02:25:21.409Z,58.70
2022-09-18T02:27:53.689Z,55.58
2022-09-18T02:30:23.075Z,50.90
2022-09-18T02:32:56.927Z,39.58
2022-09-18T02:35:35.057Z,47.47
2022-09-18T02:38:15.619Z,64.20
2022-09-18T02:41:01.341Z,55.25
2022-09-18T02:43:41.586Z,46.15
2022-09-18T02:46:24.983Z,53.45
2022-09-18T02:51:47.178Z,22.48
2022-09-18T02:54:26.694Z,37.40
2022-09-18T02:57:06.781Z,48.00
2022-09-18T02:59:41.223Z,47.42
2022-09-18T03:02:14.449Z,40.95
2022-09-18T03:04:46.118Z,57.53
2022-09-18T03:07:21.093Z,34.03
2022-09-18T03:09:52.315Z,49.03
2022-09-18T03:12:21.473Z,40.33
2022-09-18T03:14:51.250Z,51.67
2022-09-18T03:17:20.637Z,51.60
2022-09-18T03:19:51.615Z,58.28
2022-09-18T03:22:20.752Z,51.08
2022-09-18T03:24:50.837Z,74.28
2022-09-18T03:27:20.657Z,55.78
2022-09-18T03:29:50.235Z,78.28
2022-09-18T03:32:22.648Z,51.17
2022-09-18T03:34:55.025Z,57.80
2022-09-18T03:37:24.653Z,52.63
2022-09-18T03:39:54.855Z,42.85
2022-09-18T03:42:24.234Z,47.33
2022-09-18T03:44:53.512Z,54.10
2022-09-18T03:47:33.013Z,55.13
2022-09-18T03:50:08.094Z,49.70
2022-09-18T03:52:39.325Z,58.38
2022-09-18T03:55:21.285Z,45.75
2022-09-18T03:57:59.459Z,38.58
2022-09-18T04:00:48.825Z,31.92
2022-09-18T04:03:27.227Z,51.38
2022-09-18T04:06:16.314Z,38.28
2022-09-18T04:09:08.641Z,34.65
2022-09-18T04:11:45.926Z,47.20
2022-09-18T04:14:15.638Z,47.67
2022-09-18T04:16:45.311Z,32.08
2022-09-18T04:19:14.593Z,49.83
2022-09-18T04:21:45.410Z,74.40
2022-09-18T04:24:15.694Z,41.03
2022-09-18T04:26:45.362Z,33.45
2022-09-18T04:29:15.490Z,53.30
2022-09-18T04:31:44.728Z,35.03
2022-09-18T04:34:20.203Z,54.22
2022-09-18T04:36:51.505Z,33.90
2022-09-18T04:39:21.025Z,31.08
2022-09-18T04:41:50.589Z,52.40
2022-09-18T04:44:21.366Z,88.68
2022-09-18T04:49:23.138Z,33.85
2022-09-18T04:51:53.977Z,32.38
2022-09-18T04:54:23.237Z,45.15
2022-09-18T04:56:52.633Z,33.38
2022-09-18T04:59:23.142Z,34.30
2022-09-18T05:01:56.454Z,47.47
2022-09-18T05:04:25.689Z,62.60
2022-09-18T05:07:09.965Z,30.20
2022-09-18T05:09:39.250Z,96.53
2022-09-18T05:12:10.721Z,36.33
2022-09-18T05:14:42.152Z,39.28
2022-09-18T05:17:14.940Z,34.67
2022-09-18T05:19:55.322Z,38.70
2022-09-18T05:22:28.809Z,33.45
2022-09-18T05:24:57.958Z,37.05
2022-09-18T05:27:27.224Z,34.25
2022-09-18T05:29:58.101Z,33.33
2022-09-18T05:32:38.440Z,32.08
2022-09-18T05:35:08.350Z,36.28
2022-09-18T05:37:38.933Z,32.88
2022-09-18T05:40:09.734Z,35.00
2022-09-18T05:42:45.717Z,33.83
2022-09-18T05:45:16.880Z,30.17
2022-09-18T05:47:56.363Z,31.23
2022-09-18T05:50:27.344Z,31.83
2022-09-18T05:53:03.547Z,30.85
2022-09-18T05:55:42.066Z,37.08
2022-09-18T05:58:15.682Z,39.42
2022-09-18T06:00:46.177Z,37.22
2022-09-18T06:03:23.459Z,45.15
2022-09-18T06:05:55.112Z,37.88
2022-09-18T06:08:26.451Z,44.45
2022-09-18T06:10:56.446Z,43.10
2022-09-18T06:13:25.753Z,45.22
2022-09-18T06:15:57.548Z,37.40
2022-09-18T06:18:41.301Z,60.28
2022-09-18T06:21:14.910Z,42.88
2022-09-18T06:23:46.861Z,41.25
2022-09-18T06:26:26.138Z,39.42
2022-09-18T06:28:55.283Z,52.53
2022-09-18T06:31:24.488Z,44.70
2022-09-18T06:34:02.079Z,37.30
2022-09-18T06:36:31.359Z,43.78
2022-09-18T06:39:22.101Z,38.28
2022-09-18T06:41:56.274Z,41.72
2022-09-18T06:44:48.249Z,41.47
2022-09-18T06:47:19.105Z,46.05
2022-09-18T06:49:49.649Z,36.55
2022-09-18T06:52:19.665Z,43.55
2022-09-18T06:54:50.871Z,47.38
2022-09-18T06:57:33.319Z,44.97
2022-09-18T07:00:04.956Z,46.78
2022-09-18T07:02:39.416Z,40.33
2022-09-18T07:05:28.532Z,55.80
2022-09-18T07:07:58.021Z,31.55
2022-09-18T07:10:30.729Z,43.35
2022-09-18T07:13:02.431Z,68.85
2022-09-18T07:15:35.854Z,64.07
2022-09-18T07:18:09.337Z,94.78
2022-09-18T07:20:38.574Z,82.60
2022-09-18T07:23:07.829Z,92.93
2022-09-18T07:25:47.987Z,71.20
2022-09-18T07:28:17.778Z,63.38
2022-09-18T07:30:57.870Z,49.00
2022-09-18T07:33:27.124Z,53.13
2022-09-18T07:36:00.714Z,43.17
2022-09-18T07:38:30.567Z,49.03
2022-09-18T07:41:05.388Z,57.83
2022-09-18T07:43:36.181Z,59.78
2022-09-18T07:46:08.203Z,71.03
2022-09-18T07:48:38.894Z,90.45
2022-09-18T07:51:28.413Z,103.32
2022-09-18T07:54:00.456Z,121.05
2022-09-18T07:56:51.345Z,135.88
2022-09-18T07:59:24.879Z,97.63
2022-09-18T08:01:59.851Z,121.63
2022-09-18T08:04:34.186Z,118.05
2022-09-18T08:07:32.301Z,143.98
2022-09-18T08:10:31.047Z,143.68
2022-09-18T08:13:13.665Z,152.65
2022-09-18T08:16:05.692Z,153.65
2022-09-18T08:19:03.874Z,162.00
2022-09-18T08:21:53.252Z,165.95
2022-09-18T08:24:24.696Z,180.18
2022-09-18T08:26:57.306Z,159.82
2022-09-18T08:29:28.514Z,154.35
2022-09-18T08:32:09.548Z,144.75
2022-09-18T08:34:39.863Z,189.52
2022-09-18T08:37:09.124Z,188.68
2022-09-18T08:40:09.136Z,124.13
2022-09-18T08:42:53.255Z,134.05
2022-09-18T08:45:39.824Z,130.70
2022-09-18T08:48:17.244Z,155.38
2022-09-18T08:50:55.857Z,127.95
2022-09-18T08:53:32.462Z,146.63
2022-09-18T08:56:28.966Z,142.20
2022-09-18T08:59:27.530Z,114.70
2022-09-18T09:02:17.304Z,134.93
2022-09-18T09:04:48.420Z,142.38
2022-09-18T09:07:40.558Z,161.73
2022-09-18T09:10:43.359Z,160.15
2022-09-18T09:13:42.504Z,157.15
2022-09-18T09:16:18.051Z,159.82
2022-09-18T09:19:00.755Z,147.48
2022-09-18T09:21:54.126Z,204.52
2022-09-18T09:27:21.807Z,149.75
2022-09-18T09:30:05.897Z,173.23
2022-09-18T09:32:53.650Z,131.13
2022-09-18T09:35:54.744Z,186.35
2022-09-18T09:38:47.216Z,200.70
2022-09-18T09:41:27.108Z,150.80
2022-09-18T09:44:07.284Z,125.40
2022-09-18T09:46:56.230Z,148.65
2022-09-18T09:49:28.637Z,129.82
2022-09-18T09:52:10.178Z,130.38
2022-09-18T09:54:40.492Z,192.25
2022-09-18T09:57:26.071Z,117.43
2022-09-18T10:00:11.340Z,128.55
2022-09-18T10:03:25.317Z,151.30
2022-09-18T10:06:05.986Z,177.25
2022-09-18T10:08:45.521Z,168.73
2022-09-18T10:11:16.455Z,122.60
2022-09-18T10:13:56.417Z,176.10
2022-09-18T10:16:36.630Z,168.85
2022-09-18T10:19:13.958Z,144.25
2022-09-18T10:21:45.585Z,133.88
2022-09-18T10:24:25.856Z,118.53
2022-09-18T10:27:03.380Z,219.60
2022-09-18T10:29:35.875Z,165.35
2022-09-18T10:32:08.135Z,247.50
2022-09-18T10:34:45.261Z,166.85
2022-09-18T10:37:19.243Z,139.02
2022-09-18T10:39:57.808Z,190.13
2022-09-18T10:42:29.789Z,116.60
2022-09-18T10:45:29.237Z,184.75
2022-09-18T10:48:17.042Z,152.43
2022-09-18T10:50:54.603Z,174.48
2022-09-18T10:53:34.149Z,115.00
2022-09-18T10:56:31.329Z,132.55
2022-09-18T10:59:35.662Z,128.52
2022-09-18T11:02:07.933Z,122.28
2022-09-18T11:04:38.448Z,122.43
2022-09-18T11:07:08.309Z,227.32
2022-09-18T11:09:41.691Z,152.93
2022-09-18T11:12:22.216Z,177.30
2022-09-18T11:15:02.395Z,118.88
2022-09-18T11:17:36.472Z,171.07
2022-09-18T11:20:08.616Z,161.18
2022-09-18T11:22:47.725Z,191.70
2022-09-18T11:25:36.659Z,144.85
2022-09-18T11:28:24.611Z,217.25
2022-09-18T11:31:00.318Z,218.13
2022-09-18T11:33:33.789Z,213.98
2022-09-18T11:36:10.275Z,146.40
2022-09-18T11:38:44.233Z,216.13
2022-09-18T11:41:22.261Z,225.52
2022-09-18T11:44:04.938Z,169.30
2022-09-18T11:46:48.249Z,156.32
2022-09-18T11:49:23.204Z,148.00
2022-09-18T11:52:00.502Z,198.27
2022-09-18T11:54:53.870Z,208.85
2022-09-18T11:57:29.565Z,154.27
2022-09-18T12:00:08.190Z,146.73
2022-09-18T12:02:53.626Z,129.40
2022-09-18T12:05:30.577Z,197.52
2022-09-18T12:08:12.526Z,127.97
2022-09-18T12:10:56.476Z,110.18
2022-09-18T12:13:41.305Z,120.65
2022-09-18T12:16:19.281Z,120.85
2022-09-18T12:19:01.652Z,111.65
2022-09-18T12:21:41.227Z,97.45
2022-09-18T12:24:15.303Z,71.90
2022-09-18T12:27:11.427Z,119.43
2022-09-18T12:30:11.185Z,112.00
2022-09-18T12:33:19.076Z,126.63
2022-09-18T12:36:21.130Z,146.73
2022-09-18T12:39:12.779Z,91.03
2022-09-18T12:41:57.714Z,96.03
2022-09-18T12:44:48.765Z,104.63
2022-09-18T12:47:44.177Z,85.38
2022-09-18T12:50:49.630Z,75.75
2022-09-18T12:53:36.242Z,82.45
2022-09-18T12:56:24.388Z,73.28
2022-09-18T12:59:36.354Z,105.25
2022-09-18T13:02:23.472Z,109.50
2022-09-18T13:04:58.053Z,94.72
2022-09-18T13:07:35.021Z,86.43
2022-09-18T13:10:15.790Z,136.48
2022-09-18T13:12:53.129Z,99.60
2022-09-18T13:15:28.737Z,112.90
2022-09-18T13:18:16.215Z,106.00
2022-09-18T13:20:47.321Z,93.80
2022-09-18T13:23:22.642Z,105.25
2022-09-18T13:25:53.138Z,145.45
2022-09-18T13:28:24.792Z,116.38
2022-09-18T13:31:24.334Z,114.88
2022-09-18T13:33:57.474Z,104.60
2022-09-18T13:36:29.925Z,93.97
2022-09-18T13:39:04.342Z,117.05
2022-09-18T13:41:45.716Z,110.75
2022-09-18T13:44:21.832Z,106.85
2022-09-18T13:46:53.784Z,113.05
2022-09-18T13:49:29.976Z,143.18
2022-09-18T13:52:30.497Z,157.30
2022-09-18T13:55:38.193Z,231.45
2022-09-18T13:58:49.015Z,153.55
2022-09-18T14:01:59.982Z,168.10
2022-09-18T14:05:10.354Z,208.38
2022-09-18T14:08:11.462Z,154.82
2022-09-18T14:11:14.553Z,132.43
2022-09-18T14:13:51.545Z,198.30
2022-09-18T14:16:41.436Z,184.43
2022-09-18T14:19:40.408Z,160.38
2022-09-18T14:22:26.087Z,152.13
2022-09-18T14:25:01.071Z,148.48
2022-09-18T14:27:40.614Z,153.30
2022-09-18T14:30:20.504Z,143.07
2022-09-18T14:33:17.207Z,150.60
2022-09-18T14:35:57.025Z,129.93
2022-09-18T14:38:33.581Z,136.05
2022-09-18T14:41:19.437Z,146.27
2022-09-18T14:43:56.602Z,154.52
2022-09-18T14:46:28.118Z,138.15
2022-09-18T14:48:57.741Z,133.18
2022-09-18T14:51:29.539Z,166.50
2022-09-18T14:54:00.560Z,134.13
2022-09-18T14:56:35.209Z,165.48
2022-09-18T14:59:15.001Z,143.43
2022-09-18T15:01:44.226Z,122.57
2022-09-18T15:04:19.161Z,102.00
2022-09-18T15:06:51.237Z,99.78
2022-09-18T15:09:27.013Z,127.97
2022-09-18T15:12:02.551Z,122.53
2022-09-18T15:14:45.556Z,127.15
2022-09-18T15:17:23.600Z,109.55
2022-09-18T15:20:02.124Z,118.00
2022-09-18T15:22:31.998Z,117.28
2022-09-18T15:25:02.092Z,106.22
2022-09-18T15:27:32.644Z,149.45
2022-09-18T15:30:06.666Z,125.97
2022-09-18T15:32:42.540Z,103.22
2022-09-18T15:35:21.202Z,114.60
2022-09-18T15:38:00.876Z,92.70
2022-09-18T15:40:35.515Z,80.63
2022-09-18T15:43:07.182Z,101.35
2022-09-18T15:45:38.605Z,62.40
2022-09-18T15:48:44.556Z,97.88
2022-09-18T15:51:17.778Z,94.22
2022-09-18T15:54:07.683Z,93.43
2022-09-18T15:56:39.707Z,99.03
2022-09-18T15:59:19.657Z,69.55
2022-09-18T16:01:50.425Z,62.15
2022-09-18T16:04:24.015Z,91.20
2022-09-18T16:06:58.281Z,62.20
2022-09-18T16:09:41.597Z,106.47
2022-09-18T16:12:39.932Z,110.35
2022-09-18T16:15:23.203Z,78.32
2022-09-18T16:18:06.072Z,155.20
2022-09-18T16:20:40.834Z,133.43
2022-09-18T16:23:31.831Z,125.40
2022-09-18T16:26:13.221Z,130.43
2022-09-18T16:28:45.715Z,116.82
2022-09-18T16:33:55.586Z,97.53
2022-09-18T16:36:31.161Z,103.68
2022-09-18T16:39:02.713Z,78.30
2022-09-18T16:41:33.745Z,68.00
2022-09-18T16:44:04.198Z,100.78
2022-09-18T16:46:42.353Z,157.35
2022-09-18T16:49:17.159Z,126.55
2022-09-18T16:51:46.427Z,144.32
2022-09-18T16:54:15.716Z,146.15
2022-09-18T16:56:51.691Z,111.20
2022-09-18T16:59:22.011Z,131.50
2022-09-18T17:02:03.435Z,86.20
2022-09-18T17:04:35.422Z,143.23
2022-09-18T17:07:06.437Z,111.32
2022-09-18T17:09:36.122Z,116.63
2022-09-18T17:12:05.627Z,131.00
2022-09-18T17:14:35.872Z,121.25
2022-09-18T17:17:06.322Z,124.28
2022-09-18T17:19:37.530Z,103.25
2022-09-18T17:22:06.718Z,98.45
2022-09-18T17:24:35.895Z,122.47
2022-09-18T17:27:05.532Z,136.38
2022-09-18T17:29:36.012Z,108.82
2022-09-18T17:32:06.480Z,122.72
2022-09-18T17:34:37.278Z,147.77
2022-09-18T17:37:06.505Z,113.57
2022-09-18T17:39:35.694Z,86.93
2022-09-18T17:42:05.110Z,118.15
2022-09-18T17:44:35.443Z,113.00
2022-09-18T17:47:05.152Z,173.20
2022-09-18T17:49:34.617Z,138.30
2022-09-18T17:52:06.311Z,131.93
2022-09-18T17:54:36.352Z,161.13
2022-09-18T17:57:11.467Z,108.65
2022-09-18T17:59:42.083Z,122.28
2022-09-18T18:02:13.936Z,135.52
2022-09-18T18:04:43.101Z,130.52
2022-09-18T18:07:13.624Z,119.72
2022-09-18T18:09:42.701Z,139.85
2022-09-18T18:12:11.933Z,137.98
2022-09-18T18:14:41.738Z,96.38
2022-09-18T18:17:11.684Z,126.72
2022-09-18T18:19:40.834Z,100.13
2022-09-18T18:22:09.915Z,114.72
2022-09-18T18:24:40.447Z,109.88
2022-09-18T18:27:09.546Z,139.93
2022-09-18T18:29:41.060Z,124.90
2022-09-18T18:32:11.134Z,113.65
2022-09-18T18:34:40.448Z,121.35
2022-09-18T18:37:09.627Z,153.52
2022-09-18T18:39:40.221Z,140.25
2022-09-18T18:42:09.756Z,148.15
2022-09-18T18:44:40.247Z,141.50
2022-09-18T18:47:09.602Z,109.50
2022-09-18T18:49:38.794Z,81.70
2022-09-18T18:52:08.028Z,127.22
2022-09-18T18:54:37.332Z,149.10
2022-09-18T18:57:08.098Z,142.50
2022-09-18T18:59:37.325Z,150.45
2022-09-18T19:02:06.611Z,117.82
2022-09-18T19:04:36.465Z,121.43
2022-09-18T19:07:06.611Z,129.02
2022-09-18T19:09:36.437Z,130.63
2022-09-18T19:12:07.372Z,140.57
2022-09-18T19:14:38.452Z,148.43
2022-09-18T19:17:10.091Z,95.47
2022-09-18T19:19:39.325Z,117.97
2022-09-18T19:22:13.085Z,135.02
2022-09-18T19:24:42.293Z,123.20
2022-09-18T19:27:12.964Z,79.40
2022-09-18T19:29:42.459Z,68.10
2022-09-18T19:32:12.077Z,118.50
2022-09-18T19:34:41.192Z,99.15
2022-09-18T19:37:11.821Z,108.50
2022-09-18T19:39:47.240Z,120.88
2022-09-18T19:42:18.237Z,108.75
2022-09-18T19:44:50.093Z,123.78
2022-09-18T19:47:25.862Z,131.75
2022-09-18T19:49:56.870Z,110.65
2022-09-18T19:52:29.221Z,107.20
2022-09-18T19:55:00.323Z,121.50
2022-09-18T19:57:31.053Z,120.05
2022-09-18T20:00:01.288Z,97.68
2022-09-18T20:02:30.726Z,107.38
2022-09-18T20:05:01.543Z,115.95
2022-09-18T20:07:31.505Z,106.75
2022-09-18T20:10:00.787Z,82.75
2022-09-18T20:12:35.325Z,114.32
2022-09-18T20:15:05.654Z,102.18
2022-09-18T20:17:35.310Z,102.15
2022-09-18T20:20:08.761Z,129.15
2022-09-18T20:22:40.104Z,95.68
2022-09-18T20:25:11.283Z,104.18
2022-09-18T20:27:43.524Z,95.07
2022-09-18T20:30:13.729Z,93.53
2022-09-18T20:32:43.237Z,76.57
2022-09-18T20:35:12.563Z,70.88
2022-09-18T20:37:41.875Z,111.90
2022-09-18T20:40:12.716Z,95.03
2022-09-18T20:42:51.560Z,78.55
2022-09-18T20:45:21.735Z,78.60
2022-09-18T20:47:51.472Z,74.65
2022-09-18T20:50:23.826Z,105.43
2022-09-18T20:52:53.175Z,61.55
2022-09-18T20:55:22.655Z,112.07
2022-09-18T20:57:57.326Z,120.18
2022-09-18T21:00:29.119Z,105.38
2022-09-18T21:02:58.457Z,75.25
2022-09-18T21:05:29.799Z,95.47
2022-09-18T21:08:00.963Z,111.38
2022-09-18T21:10:31.695Z,104.93
2022-09-18T21:13:02.421Z,72.43
2022-09-18T21:15:32.107Z,131.98
2022-09-18T21:18:01.600Z,75.43
2022-09-18T21:20:31.487Z,81.60
2022-09-18T21:23:18.412Z,108.15
2022-09-18T21:25:47.637Z,90.70
2022-09-18T21:28:20.417Z,99.47
2022-09-18T21:30:49.795Z,105.57
2022-09-18T21:33:20.147Z,72.55
2022-09-18T21:35:54.966Z,77.28
2022-09-18T21:38:25.535Z,103.60
2022-09-18T21:41:02.240Z,118.25
2022-09-18T21:43:34.071Z,88.25
2022-09-18T21:46:04.665Z,76.20
2022-09-18T21:48:35.478Z,109.18
2022-09-18T21:51:05.207Z,91.38
2022-09-18T21:53:35.691Z,98.07
2022-09-18T21:56:08.104Z,85.18
2022-09-18T21:58:40.820Z,103.30
2022-09-18T22:01:15.796Z,99.07
2022-09-18T22:03:50.555Z,83.88
2022-09-18T22:06:21.305Z,80.13
2022-09-18T22:08:52.585Z,111.75
2022-09-18T22:11:24.832Z,105.43
2022-09-18T22:13:58.192Z,86.68
2022-09-18T22:16:29.559Z,77.55
2022-09-18T22:18:59.144Z,99.75
2022-09-18T22:21:31.145Z,116.13
2022-09-18T22:24:06.552Z,100.35
2022-09-18T22:26:38.656Z,102.70
2022-09-18T22:29:14.719Z,99.50
2022-09-18T22:31:46.556Z,101.53
2022-09-18T22:34:18.715Z,88.32
2022-09-18T22:36:49.351Z,94.63
2022-09-18T22:39:20.943Z,106.60
2022-09-18T22:41:51.550Z,83.15
2022-09-18T22:44:22.844Z,104.07
2022-09-18T22:46:53.785Z,90.35
2022-09-18T22:49:24.675Z,88.32
2022-09-18T22:51:54.820Z,93.05
2022-09-18T22:54:24.989Z,77.00
2022-09-18T22:56:56.983Z,86.97
2022-09-18T22:59:29.246Z,78.03
2022-09-18T23:02:02.409Z,96.00
2022-09-18T23:04:34.431Z,84.95
2022-09-18T23:07:04.610Z,93.30
2022-09-18T23:09:34.015Z,90.80
2022-09-18T23:12:03.880Z,89.30
2022-09-18T23:14:34.419Z,81.20
2022-09-18T23:17:03.598Z,90.43
2022-09-18T23:19:35.518Z,90.15
2022-09-18T23:22:05.203Z,95.53
2022-09-18T23:24:34.324Z,95.45
2022-09-18T23:27:03.460Z,92.13
2022-09-18T23:29:35.486Z,91.03
2022-09-18T23:32:04.910Z,84.70
2022-09-18T23:34:34.620Z,80.40
2022-09-18T23:37:04.002Z,81.30
2022-09-18T23:39:34.992Z,89.45
2022-09-18T23:42:05.922Z,89.53
2022-09-18T23:44:36.521Z,87.80
2022-09-18T23:47:05.789Z,85.53
2022-09-18T23:49:35.344Z,98.97
2022-09-18T23:52:05.213Z,75.95
2022-09-18T23:54:34.458Z,96.45
2022-09-18T23:57:03.586Z,99.35
2022-09-18T23:59:32.876Z,96.35
